Carlton, Georgia
Current Conditions -  °F | °C
As of 2:51 AM on Thursday 23 Oct 2014 (Local Time) from KAHN Reporting Station
Clear Clear  
Wind Chill: 42°   Ceiling: Unl
Heat Index: 42°   Visibility: 10mi
Dew Point: 39°   Wind: 3mph
Humidity: 89%   Direction: 60°ENE
Pressure: 30.1"   Gusts: NA
Location:  34.04°N, 83.03°W
Report Text: KAHN 230651Z AUTO 06003KT 10SM CLR 06/04 A3010 RMK AO2 SLP193 T00560039 TSNO
Loading
Personal Weather Stations






























Interactive Weather Map
Tropical Storm Tracking
New forecast layout! Learn more

10-Day Weather Forecast

Advertisements
Track Severe Weather on mobile